sensor_id;sensor_type;location;lat;lon;timestamp;pressure;altitude;pressure_sealevel;temperature;humidity
72925;BME280;61070;50.794;7.054;2023-05-01T00:01:19;100958.38;;;11.66;78.21
72925;BME280;61070;50.794;7.054;2023-05-01T00:03:44;100956.63;;;11.64;78.40
72925;BME280;61070;50.794;7.054;2023-05-01T00:06:09;100960.13;;;11.66;78.16
72925;BME280;61070;50.794;7.054;2023-05-01T00:08:35;100950.44;;;11.63;78.22
72925;BME280;61070;50.794;7.054;2023-05-01T00:11:04;100946.88;;;11.66;78.19
72925;BME280;61070;50.794;7.054;2023-05-01T00:13:30;100952.19;;;11.68;77.69
72925;BME280;61070;50.794;7.054;2023-05-01T00:15:55;100945.13;;;11.66;78.15
72925;BME280;61070;50.794;7.054;2023-05-01T00:18:21;100952.03;;;11.77;78.16
72925;BME280;61070;50.794;7.054;2023-05-01T00:20:46;100937.97;;;11.72;78.55
72925;BME280;61070;50.794;7.054;2023-05-01T00:23:11;100940.69;;;11.64;78.77
72925;BME280;61070;50.794;7.054;2023-05-01T00:25:37;100930.13;;;11.61;78.69
72925;BME280;61070;50.794;7.054;2023-05-01T00:28:03;100933.63;;;11.64;78.34
72925;BME280;61070;50.794;7.054;2023-05-01T00:30:31;100932.72;;;11.65;78.38
72925;BME280;61070;50.794;7.054;2023-05-01T00:32:56;100932.69;;;11.69;78.66
72925;BME280;61070;50.794;7.054;2023-05-01T00:35:22;100937.88;;;11.78;78.12
72925;BME280;61070;50.794;7.054;2023-05-01T00:37:47;100929.03;;;11.77;79.52
72925;BME280;61070;50.794;7.054;2023-05-01T00:40:12;100923.69;;;11.83;79.61
72925;BME280;61070;50.794;7.054;2023-05-01T00:42:38;100926.34;;;11.83;79.16
72925;BME280;61070;50.794;7.054;2023-05-01T00:45:05;100929.94;;;11.76;78.54
72925;BME280;61070;50.794;7.054;2023-05-01T00:47:32;100930.78;;;11.83;78.71
72925;BME280;61070;50.794;7.054;2023-05-01T00:49:58;100919.31;;;11.81;78.87
72925;BME280;61070;50.794;7.054;2023-05-01T00:52:24;100922.81;;;11.83;78.56
72925;BME280;61070;50.794;7.054;2023-05-01T00:54:50;100917.53;;;11.81;78.99
72925;BME280;61070;50.794;7.054;2023-05-01T00:57:20;100914.91;;;11.80;78.88
72925;BME280;61070;50.794;7.054;2023-05-01T00:59:46;100919.22;;;11.87;78.98
72925;BME280;61070;50.794;7.054;2023-05-01T01:02:12;100904.25;;;11.81;78.68
72925;BME280;61070;50.794;7.054;2023-05-01T01:04:41;100901.63;;;11.78;79.25
72925;BME280;61070;50.794;7.054;2023-05-01T01:07:12;100900.72;;;11.78;79.11
72925;BME280;61070;50.794;7.054;2023-05-01T01:15:20;100888.34;;;11.80;78.74
72925;BME280;61070;50.794;7.054;2023-05-01T01:17:56;100891.03;;;11.75;78.53
72925;BME280;61070;50.794;7.054;2023-05-01T01:20:37;100885.75;;;11.74;79.15
72925;BME280;61070;50.794;7.054;2023-05-01T01:26:38;100880.59;;;11.61;80.27
72925;BME280;61070;50.794;7.054;2023-05-01T01:32:32;100887.78;;;11.52;80.45
72925;BME280;61070;50.794;7.054;2023-05-01T01:35:06;100885.16;;;11.50;81.13
72925;BME280;61070;50.794;7.054;2023-05-01T01:37:51;100869.28;;;11.49;81.57
72925;BME280;61070;50.794;7.054;2023-05-01T01:40:24;100871.06;;;11.48;81.77
72925;BME280;61070;50.794;7.054;2023-05-01T01:42:58;100871.03;;;11.50;82.41
72925;BME280;61070;50.794;7.054;2023-05-01T01:45:35;100867.47;;;11.51;81.84
72925;BME280;61070;50.794;7.054;2023-05-01T01:48:01;100869.19;;;11.53;81.75
72925;BME280;61070;50.794;7.054;2023-05-01T01:50:27;100856.84;;;11.52;81.83
72925;BME280;61070;50.794;7.054;2023-05-01T01:52:54;100858.63;;;11.50;81.75
72925;BME280;61070;50.794;7.054;2023-05-01T01:55:26;100863.03;;;11.53;81.70
72925;BME280;61070;50.794;7.054;2023-05-01T01:57:52;100857.75;;;11.50;82.01
72925;BME280;61070;50.794;7.054;2023-05-01T02:00:18;100852.41;;;11.53;82.05
72925;BME280;61070;50.794;7.054;2023-05-01T02:02:45;100855.03;;;11.57;82.56
72925;BME280;61070;50.794;7.054;2023-05-01T02:05:15;100847.94;;;11.58;82.32
72925;BME280;61070;50.794;7.054;2023-05-01T02:07:42;100845.31;;;11.56;82.59
72925;BME280;61070;50.794;7.054;2023-05-01T02:10:11;100840.91;;;11.54;82.76
72925;BME280;61070;50.794;7.054;2023-05-01T02:12:38;100843.56;;;11.55;82.71
72925;BME280;61070;50.794;7.054;2023-05-01T02:15:05;100839.25;;;11.47;83.00
72925;BME280;61070;50.794;7.054;2023-05-01T02:17:34;100843.53;;;11.57;82.69
72925;BME280;61070;50.794;7.054;2023-05-01T02:20:01;100836.63;;;11.42;82.14
72925;BME280;61070;50.794;7.054;2023-05-01T02:22:29;100836.59;;;11.44;81.66
72925;BME280;61070;50.794;7.054;2023-05-01T02:24:55;100834.75;;;11.50;81.50
72925;BME280;61070;50.794;7.054;2023-05-01T02:27:33;100823.28;;;11.50;81.18
72925;BME280;61070;50.794;7.054;2023-05-01T02:30:00;100826.72;;;11.56;80.68
72925;BME280;61070;50.794;7.054;2023-05-01T02:32:25;100816.09;;;11.58;80.42
72925;BME280;61070;50.794;7.054;2023-05-01T02:34:52;100821.38;;;11.59;79.82
72925;BME280;61070;50.794;7.054;2023-05-01T02:37:18;100815.19;;;11.59;79.55
72925;BME280;61070;50.794;7.054;2023-05-01T02:39:43;100818.75;;;11.58;79.24
72925;BME280;61070;50.794;7.054;2023-05-01T02:42:10;100809.06;;;11.54;79.34
72925;BME280;61070;50.794;7.054;2023-05-01T02:44:44;100802.06;;;11.48;79.58
72925;BME280;61070;50.794;7.054;2023-05-01T02:47:15;100797.72;;;11.43;80.06
72925;BME280;61070;50.794;7.054;2023-05-01T02:49:42;100795.94;;;11.45;80.14
72925;BME280;61070;50.794;7.054;2023-05-01T02:52:10;100791.56;;;11.41;80.31
72925;BME280;61070;50.794;7.054;2023-05-01T02:54:36;100795.09;;;11.41;80.84
72925;BME280;61070;50.794;7.054;2023-05-01T02:57:03;100790.66;;;11.42;81.12
72925;BME280;61070;50.794;7.054;2023-05-01T02:59:30;100794.34;;;11.31;81.59
72925;BME280;61070;50.794;7.054;2023-05-01T03:01:55;100789.97;;;11.29;82.21
72925;BME280;61070;50.794;7.054;2023-05-01T03:04:20;100784.63;;;11.30;81.80
72925;BME280;61070;50.794;7.054;2023-05-01T03:06:46;100780.28;;;11.26;82.10
72925;BME280;61070;50.794;7.054;2023-05-01T03:09:11;100777.53;;;11.32;82.17
72925;BME280;61070;50.794;7.054;2023-05-01T03:11:36;100771.50;;;11.23;82.38
72925;BME280;61070;50.794;7.054;2023-05-01T03:14:02;100774.13;;;11.24;82.09
72925;BME280;61070;50.794;7.054;2023-05-01T03:16:27;100771.50;;;11.23;81.64
72925;BME280;61070;50.794;7.054;2023-05-01T03:18:52;100772.41;;;11.19;81.03
72925;BME280;61070;50.794;7.054;2023-05-01T03:21:17;100765.28;;;11.24;80.38
72925;BME280;61070;50.794;7.054;2023-05-01T03:23:43;100754.69;;;11.21;80.43
72925;BME280;61070;50.794;7.054;2023-05-01T03:26:08;100758.31;;;11.17;80.92
72925;BME280;61070;50.794;7.054;2023-05-01T03:28:33;100760.97;;;11.15;81.23
72925;BME280;61070;50.794;7.054;2023-05-01T03:30:59;100755.69;;;11.15;81.69
72925;BME280;61070;50.794;7.054;2023-05-01T03:33:24;100753.94;;;11.13;81.67
72925;BME280;61070;50.794;7.054;2023-05-01T03:36:02;100760.19;;;11.10;81.99
72925;BME280;61070;50.794;7.054;2023-05-01T03:38:32;100749.72;;;10.99;81.87
72925;BME280;61070;50.794;7.054;2023-05-01T03:40:57;100752.41;;;10.95;82.08
72925;BME280;61070;50.794;7.054;2023-05-01T03:43:23;100748.06;;;10.89;82.05
72925;BME280;61070;50.794;7.054;2023-05-01T03:45:50;100744.53;;;10.87;82.00
72925;BME280;61070;50.794;7.054;2023-05-01T03:48:16;100739.28;;;10.84;82.06
72925;BME280;61070;50.794;7.054;2023-05-01T03:50:41;100741.97;;;10.83;82.34
72925;BME280;61070;50.794;7.054;2023-05-01T03:53:07;100738.47;;;10.81;82.62
72925;BME280;61070;50.794;7.054;2023-05-01T03:55:32;100742.06;;;10.76;82.95
72925;BME280;61070;50.794;7.054;2023-05-01T03:57:57;100738.59;;;10.70;83.60
72925;BME280;61070;50.794;7.054;2023-05-01T04:00:23;100736.75;;;10.76;83.25
72925;BME280;61070;50.794;7.054;2023-05-01T04:02:48;100741.19;;;10.73;83.45
72925;BME280;61070;50.794;7.054;2023-05-01T04:05:15;100732.31;;;10.77;83.29
72925;BME280;61070;50.794;7.054;2023-05-01T04:07:40;100741.16;;;10.77;83.19
72925;BME280;61070;50.794;7.054;2023-05-01T04:10:06;100740.25;;;10.78;83.43
72925;BME280;61070;50.794;7.054;2023-05-01T04:12:33;100737.63;;;10.75;82.96
72925;BME280;61070;50.794;7.054;2023-05-01T04:14:59;100733.19;;;10.77;82.82
72925;BME280;61070;50.794;7.054;2023-05-01T04:17:24;100732.31;;;10.75;82.90
72925;BME280;61070;50.794;7.054;2023-05-01T04:19:49;100729.66;;;10.75;82.63
72925;BME280;61070;50.794;7.054;2023-05-01T04:22:15;100733.22;;;10.74;82.83
72925;BME280;61070;50.794;7.054;2023-05-01T04:24:40;100730.56;;;10.76;82.47
72925;BME280;61070;50.794;7.054;2023-05-01T04:27:07;100732.28;;;10.80;82.54
72925;BME280;61070;50.794;7.054;2023-05-01T04:29:32;100732.25;;;10.82;82.54
72925;BME280;61070;50.794;7.054;2023-05-01T04:31:58;100734.84;;;10.85;82.43
72925;BME280;61070;50.794;7.054;2023-05-01T04:34:23;100736.63;;;10.84;82.34
72925;BME280;61070;50.794;7.054;2023-05-01T04:36:48;100730.47;;;10.84;82.27
72925;BME280;61070;50.794;7.054;2023-05-01T04:39:15;100727.78;;;10.85;81.84
72925;BME280;61070;50.794;7.054;2023-05-01T04:41:41;100721.56;;;10.89;81.42
72925;BME280;61070;50.794;7.054;2023-05-01T04:44:06;100726.94;;;10.83;81.74
72925;BME280;61070;50.794;7.054;2023-05-01T04:46:31;100737.44;;;10.92;80.93
72925;BME280;61070;50.794;7.054;2023-05-01T04:48:57;100732.06;;;10.97;81.10
72925;BME280;61070;50.794;7.054;2023-05-01T04:51:22;100738.13;;;11.05;80.50
72925;BME280;61070;50.794;7.054;2023-05-01T04:53:48;100733.72;;;11.05;80.21
72925;BME280;61070;50.794;7.054;2023-05-01T04:56:13;100738.91;;;11.15;80.18
72925;BME280;61070;50.794;7.054;2023-05-01T04:58:38;100739.69;;;11.20;79.71
72925;BME280;61070;50.794;7.054;2023-05-01T05:01:04;100737.03;;;11.20;79.72
72925;BME280;61070;50.794;7.054;2023-05-01T05:03:29;100736.09;;;11.25;79.23
72925;BME280;61070;50.794;7.054;2023-05-01T05:05:54;100732.53;;;11.26;79.17
72925;BME280;61070;50.794;7.054;2023-05-01T05:08:19;100735.97;;;11.34;78.70
72925;BME280;61070;50.794;7.054;2023-05-01T05:10:45;100726.19;;;11.38;78.56
72925;BME280;61070;50.794;7.054;2023-05-01T05:13:10;100728.03;;;11.31;78.99
72925;BME280;61070;50.794;7.054;2023-05-01T05:15:35;100743.78;;;11.45;78.63
72925;BME280;61070;50.794;7.054;2023-05-01T05:18:01;100734.06;;;11.43;78.98
72925;BME280;61070;50.794;7.054;2023-05-01T05:20:26;100729.59;;;11.48;78.88
72925;BME280;61070;50.794;7.054;2023-05-01T05:22:52;100733.97;;;11.50;78.56
72925;BME280;61070;50.794;7.054;2023-05-01T05:25:17;100733.88;;;11.55;78.89
72925;BME280;61070;50.794;7.054;2023-05-01T05:27:43;100731.13;;;11.61;78.42
72925;BME280;61070;50.794;7.054;2023-05-01T05:30:09;100731.91;;;11.69;78.53
72925;BME280;61070;50.794;7.054;2023-05-01T05:32:34;100730.19;;;11.65;78.51
72925;BME280;61070;50.794;7.054;2023-05-01T05:34:59;100734.53;;;11.71;78.22
72925;BME280;61070;50.794;7.054;2023-05-01T05:37:25;100734.44;;;11.75;78.12
72925;BME280;61070;50.794;7.054;2023-05-01T05:39:51;100733.44;;;11.85;77.98
72925;BME280;61070;50.794;7.054;2023-05-01T05:42:16;100727.31;;;11.82;78.62
72925;BME280;61070;50.794;7.054;2023-05-01T05:44:42;100728.03;;;11.91;78.26
72925;BME280;61070;50.794;7.054;2023-05-01T05:47:07;100730.00;;;11.80;79.43
72925;BME280;61070;50.794;7.054;2023-05-01T05:49:32;100722.72;;;11.91;79.27
72925;BME280;61070;50.794;7.054;2023-05-01T05:51:57;100727.91;;;11.98;78.61
72925;BME280;61070;50.794;7.054;2023-05-01T05:54:23;100725.25;;;11.98;78.96
72925;BME280;61070;50.794;7.054;2023-05-01T05:56:48;100727.00;;;11.99;78.62
72925;BME280;61070;50.794;7.054;2023-05-01T05:59:13;100727.81;;;12.04;78.08
72925;BME280;61070;50.794;7.054;2023-05-01T06:01:39;100723.31;;;12.07;77.68
72925;BME280;61070;50.794;7.054;2023-05-01T06:04:05;100722.34;;;12.13;77.51
72925;BME280;61070;50.794;7.054;2023-05-01T06:06:30;100725.84;;;12.15;77.86
72925;BME280;61070;50.794;7.054;2023-05-01T06:08:56;100732.63;;;12.31;77.65
72925;BME280;61070;50.794;7.054;2023-05-01T06:11:21;100720.31;;;12.27;78.54
72925;BME280;61070;50.794;7.054;2023-05-01T06:13:47;100733.41;;;12.38;78.45
72925;BME280;61070;50.794;7.054;2023-05-01T06:16:13;100725.22;;;12.48;78.05
72925;BME280;61070;50.794;7.054;2023-05-01T06:18:39;100725.88;;;12.60;77.60
72925;BME280;61070;50.794;7.054;2023-05-01T06:21:05;100732.03;;;12.62;77.34
72925;BME280;61070;50.794;7.054;2023-05-01T06:23:30;100723.94;;;12.68;77.15
72925;BME280;61070;50.794;7.054;2023-05-01T06:25:55;100720.25;;;12.75;76.97
72925;BME280;61070;50.794;7.054;2023-05-01T06:28:21;100716.72;;;12.74;77.04
72925;BME280;61070;50.794;7.054;2023-05-01T06:30:46;100722.78;;;12.81;76.69
72925;BME280;61070;50.794;7.054;2023-05-01T06:33:12;100727.94;;;12.89;76.22
72925;BME280;61070;50.794;7.054;2023-05-01T06:35:38;100723.66;;;12.81;76.93
72925;BME280;61070;50.794;7.054;2023-05-01T06:38:04;100727.97;;;12.87;76.31
72925;BME280;61070;50.794;7.054;2023-05-01T06:40:29;100721.66;;;12.93;76.64
72925;BME280;61070;50.794;7.054;2023-05-01T06:42:56;100724.22;;;12.97;76.07
72925;BME280;61070;50.794;7.054;2023-05-01T06:45:21;100721.50;;;12.99;76.21
72925;BME280;61070;50.794;7.054;2023-05-01T06:47:47;100728.47;;;13.06;76.63
72925;BME280;61070;50.794;7.054;2023-05-01T06:50:12;100722.16;;;13.10;75.99
72925;BME280;61070;50.794;7.054;2023-05-01T06:52:39;100715.81;;;13.19;75.45
72925;BME280;61070;50.794;7.054;2023-05-01T06:55:04;100720.09;;;13.26;76.34
72925;BME280;61070;50.794;7.054;2023-05-01T06:57:30;100720.81;;;13.32;74.76
72925;BME280;61070;50.794;7.054;2023-05-01T06:59:55;100711.69;;;13.43;75.02
72925;BME280;61070;50.794;7.054;2023-05-01T07:02:20;100721.25;;;13.51;74.89
72925;BME280;61070;50.794;7.054;2023-05-01T07:04:46;100708.88;;;13.50;74.53
72925;BME280;61070;50.794;7.054;2023-05-01T07:07:11;100713.28;;;13.51;74.59
72925;BME280;61070;50.794;7.054;2023-05-01T07:09:37;100707.63;;;13.65;74.71
72925;BME280;61070;50.794;7.054;2023-05-01T07:12:03;100703.16;;;13.65;73.83
72925;BME280;61070;50.794;7.054;2023-05-01T07:14:28;100699.44;;;13.73;73.76
72925;BME280;61070;50.794;7.054;2023-05-01T07:16:54;100702.88;;;13.78;74.43
72925;BME280;61070;50.794;7.054;2023-05-01T07:19:19;100690.66;;;13.69;73.66
72925;BME280;61070;50.794;7.054;2023-05-01T07:21:45;100707.91;;;13.88;70.51
72925;BME280;61070;50.794;7.054;2023-05-01T07:24:10;100697.94;;;13.96;69.87
72925;BME280;61070;50.794;7.054;2023-05-01T07:26:36;100698.03;;;13.93;69.36
72925;BME280;61070;50.794;7.054;2023-05-01T07:29:02;100698.75;;;14.00;69.92
72925;BME280;61070;50.794;7.054;2023-05-01T07:31:28;100693.91;;;14.14;69.73
72925;BME280;61070;50.794;7.054;2023-05-01T07:33:53;100696.53;;;14.17;66.33
72925;BME280;61070;50.794;7.054;2023-05-01T07:36:19;100692.84;;;14.21;66.99
72925;BME280;61070;50.794;7.054;2023-05-01T07:38:46;100694.69;;;14.19;67.13
72925;BME280;61070;50.794;7.054;2023-05-01T07:41:12;100691.63;;;14.33;65.63
72925;BME280;61070;50.794;7.054;2023-05-01T07:43:37;100692.41;;;14.37;64.58
72925;BME280;61070;50.794;7.054;2023-05-01T07:46:02;100692.84;;;14.21;63.09
72925;BME280;61070;50.794;7.054;2023-05-01T07:48:28;100693.44;;;14.33;63.58
72925;BME280;61070;50.794;7.054;2023-05-01T07:50:53;100697.25;;;14.22;63.22
72925;BME280;61070;50.794;7.054;2023-05-01T07:53:20;100683.84;;;14.25;63.91
72925;BME280;61070;50.794;7.054;2023-05-01T07:55:47;100696.88;;;14.36;62.31
72925;BME280;61070;50.794;7.054;2023-05-01T07:58:12;100688.66;;;14.45;63.08
72925;BME280;61070;50.794;7.054;2023-05-01T08:00:37;100688.34;;;14.56;63.39
72925;BME280;61070;50.794;7.054;2023-05-01T08:03:02;100693.19;;;14.74;64.21
72925;BME280;61070;50.794;7.054;2023-05-01T08:05:28;100688.44;;;14.84;64.60
72925;BME280;61070;50.794;7.054;2023-05-01T08:07:53;100692.16;;;15.08;62.64
72925;BME280;61070;50.794;7.054;2023-05-01T08:10:18;100690.22;;;15.13;62.68
72925;BME280;61070;50.794;7.054;2023-05-01T08:12:44;100692.56;;;15.24;61.33
72925;BME280;61070;50.794;7.054;2023-05-01T08:15:09;100700.59;;;15.52;60.46
72925;BME280;61070;50.794;7.054;2023-05-01T08:17:35;100690.66;;;15.55;61.14
72925;BME280;61070;50.794;7.054;2023-05-01T08:20:01;100691.88;;;15.73;59.55
72925;BME280;61070;50.794;7.054;2023-05-01T08:22:26;100684.44;;;15.83;60.15
72925;BME280;61070;50.794;7.054;2023-05-01T08:24:52;100684.44;;;16.09;57.73
72925;BME280;61070;50.794;7.054;2023-05-01T08:27:17;100689.41;;;16.20;58.41
72925;BME280;61070;50.794;7.054;2023-05-01T08:29:43;100684.03;;;16.45;58.24
72925;BME280;61070;50.794;7.054;2023-05-01T08:32:08;100684.63;;;16.53;58.61
72925;BME280;61070;50.794;7.054;2023-05-01T08:34:34;100685.41;;;16.32;57.20
72925;BME280;61070;50.794;7.054;2023-05-01T08:37:00;100686.38;;;16.54;55.25
72925;BME280;61070;50.794;7.054;2023-05-01T08:39:25;100689.81;;;16.57;56.22
72925;BME280;61070;50.794;7.054;2023-05-01T08:41:51;100689.66;;;16.37;56.03
72925;BME280;61070;50.794;7.054;2023-05-01T08:44:18;100688.19;;;16.28;56.57
72925;BME280;61070;50.794;7.054;2023-05-01T08:47:06;100684.31;;;16.37;55.89
72925;BME280;61070;50.794;7.054;2023-05-01T08:49:38;100685.66;;;16.74;57.11
72925;BME280;61070;50.794;7.054;2023-05-01T08:52:05;100682.69;;;17.05;55.00
72925;BME280;61070;50.794;7.054;2023-05-01T08:54:34;100679.66;;;17.14;54.47
72925;BME280;61070;50.794;7.054;2023-05-01T08:57:02;100681.13;;;17.44;55.59
72925;BME280;61070;50.794;7.054;2023-05-01T08:59:34;100688.41;;;17.41;55.01
72925;BME280;61070;50.794;7.054;2023-05-01T09:02:01;100681.78;;;17.28;54.18
72925;BME280;61070;50.794;7.054;2023-05-01T09:04:34;100671.16;;;17.26;53.63
72925;BME280;61070;50.794;7.054;2023-05-01T09:07:01;100688.00;;;16.83;53.89
72925;BME280;61070;50.794;7.054;2023-05-01T09:09:27;100678.09;;;17.08;53.72
72925;BME280;61070;50.794;7.054;2023-05-01T09:11:59;100674.63;;;17.28;53.83
72925;BME280;61070;50.794;7.054;2023-05-01T09:14:25;100672.66;;;17.33;53.84
72925;BME280;61070;50.794;7.054;2023-05-01T09:16:52;100670.31;;;17.69;54.10
72925;BME280;61070;50.794;7.054;2023-05-01T09:19:18;100664.34;;;17.83;53.62
72925;BME280;61070;50.794;7.054;2023-05-01T09:21:43;100670.16;;;17.72;52.70
72925;BME280;61070;50.794;7.054;2023-05-01T09:24:09;100664.06;;;17.69;53.06
72925;BME280;61070;50.794;7.054;2023-05-01T09:26:38;100660.34;;;17.93;51.17
72925;BME280;61070;50.794;7.054;2023-05-01T09:29:06;100653.19;;;18.14;52.06
72925;BME280;61070;50.794;7.054;2023-05-01T09:31:31;100662.34;;;18.09;53.45
72925;BME280;61070;50.794;7.054;2023-05-01T09:33:58;100662.13;;;18.33;52.40
72925;BME280;61070;50.794;7.054;2023-05-01T09:36:26;100659.47;;;18.33;51.83
72925;BME280;61070;50.794;7.054;2023-05-01T09:38:53;100659.06;;;18.43;50.97
72925;BME280;61070;50.794;7.054;2023-05-01T09:41:18;100650.75;;;18.49;52.48
72925;BME280;61070;50.794;7.054;2023-05-01T09:43:52;100650.38;;;18.56;50.67
72925;BME280;61070;50.794;7.054;2023-05-01T09:46:18;100652.06;;;18.59;52.66
72925;BME280;61070;50.794;7.054;2023-05-01T09:48:58;100655.31;;;19.05;51.47
72925;BME280;61070;50.794;7.054;2023-05-01T09:54:00;100650.75;;;18.49;50.07
72925;BME280;61070;50.794;7.054;2023-05-01T09:56:28;100657.13;;;18.26;50.45
72925;BME280;61070;50.794;7.054;2023-05-01T09:58:54;100648.63;;;18.37;51.26
72925;BME280;61070;50.794;7.054;2023-05-01T10:01:41;100651.53;;;18.71;50.94
72925;BME280;61070;50.794;7.054;2023-05-01T10:04:07;100646.25;;;18.70;50.88
72925;BME280;61070;50.794;7.054;2023-05-01T10:06:33;100648.78;;;18.73;52.87
72925;BME280;61070;50.794;7.054;2023-05-01T10:08:59;100645.88;;;18.96;53.58
72925;BME280;61070;50.794;7.054;2023-05-01T10:11:25;100641.97;;;19.03;52.04
72925;BME280;61070;50.794;7.054;2023-05-01T10:14:09;100650.06;;;18.64;52.20
72925;BME280;61070;50.794;7.054;2023-05-01T10:16:36;100651.53;;;18.71;53.09
72925;BME280;61070;50.794;7.054;2023-05-01T10:19:03;100651.53;;;18.71;52.72
72925;BME280;61070;50.794;7.054;2023-05-01T10:21:29;100648.34;;;18.82;51.15
72925;BME280;61070;50.794;7.054;2023-05-01T10:23:56;100654.00;;;18.76;53.77
72925;BME280;61070;50.794;7.054;2023-05-01T10:26:21;100655.69;;;18.58;51.89
72925;BME280;61070;50.794;7.054;2023-05-01T10:28:48;100659.97;;;18.62;51.71
72925;BME280;61070;50.794;7.054;2023-05-01T10:31:14;100653.69;;;18.43;52.43
72925;BME280;61070;50.794;7.054;2023-05-01T10:33:41;100656.22;;;18.46;51.75
72925;BME280;61070;50.794;7.054;2023-05-01T10:36:12;100648.94;;;18.70;51.29
72925;BME280;61070;50.794;7.054;2023-05-01T10:38:39;100649.25;;;18.62;51.60
72925;BME280;61070;50.794;7.054;2023-05-01T10:41:05;100645.97;;;18.95;52.37
72925;BME280;61070;50.794;7.054;2023-05-01T10:43:30;100640.28;;;19.19;51.42
72925;BME280;61070;50.794;7.054;2023-05-01T10:51:22;100630.75;;;19.31;51.59
72925;BME280;61070;50.794;7.054;2023-05-01T10:54:21;100630.06;;;19.64;50.23
72925;BME280;61070;50.794;7.054;2023-05-01T10:59:03;100628.16;;;19.66;48.53
72925;BME280;61070;50.794;7.054;2023-05-01T11:01:42;100621.13;;;19.63;48.51
72925;BME280;61070;50.794;7.054;2023-05-01T11:09:39;100623.53;;;19.51;49.98
72925;BME280;61070;50.794;7.054;2023-05-01T11:12:06;100629.81;;;19.32;49.86
72925;BME280;61070;50.794;7.054;2023-05-01T11:20:06;100617.03;;;19.55;50.02
72925;BME280;61070;50.794;7.054;2023-05-01T11:22:32;100617.94;;;19.55;50.43
72925;BME280;61070;50.794;7.054;2023-05-01T11:24:58;100625.09;;;19.73;50.67
72925;BME280;61070;50.794;7.054;2023-05-01T11:27:25;100622.25;;;19.40;50.02
72925;BME280;61070;50.794;7.054;2023-05-01T11:29:52;100620.41;;;19.60;50.76
72925;BME280;61070;50.794;7.054;2023-05-01T11:32:21;100618.03;;;19.88;49.33
72925;BME280;61070;50.794;7.054;2023-05-01T11:34:49;100612.34;;;19.94;48.72
72925;BME280;61070;50.794;7.054;2023-05-01T11:37:15;100622.47;;;20.06;48.65
72925;BME280;61070;50.794;7.054;2023-05-01T11:39:50;100622.47;;;19.72;48.71
72925;BME280;61070;50.794;7.054;2023-05-01T11:42:19;100618.91;;;20.06;49.51
72925;BME280;61070;50.794;7.054;2023-05-01T11:45:06;100623.72;;;19.99;48.53
72925;BME280;61070;50.794;7.054;2023-05-01T11:47:32;100617.63;;;19.78;48.79
72925;BME280;61070;50.794;7.054;2023-05-01T11:49:57;100609.44;;;20.32;48.90
72925;BME280;61070;50.794;7.054;2023-05-01T11:52:22;100612.31;;;20.29;48.29
72925;BME280;61070;50.794;7.054;2023-05-01T11:54:48;100607.13;;;20.09;47.78
72925;BME280;61070;50.794;7.054;2023-05-01T11:57:13;100609.50;;;19.97;49.01
72925;BME280;61070;50.794;7.054;2023-05-01T11:59:38;100611.69;;;20.24;48.01
72925;BME280;61070;50.794;7.054;2023-05-01T12:02:04;100606.25;;;20.58;47.93
72925;BME280;61070;50.794;7.054;2023-05-01T12:04:29;100606.25;;;20.58;47.93
72925;BME280;61070;50.794;7.054;2023-05-01T12:06:55;100595.94;;;20.67;47.06
72925;BME280;61070;50.794;7.054;2023-05-01T12:09:23;100598.97;;;20.76;47.18
72925;BME280;61070;50.794;7.054;2023-05-01T12:11:52;100596.91;;;20.97;46.33
72925;BME280;61070;50.794;7.054;2023-05-01T12:14:19;100587.41;;;21.21;46.85
72925;BME280;61070;50.794;7.054;2023-05-01T12:16:45;100590.97;;;21.54;47.17
72925;BME280;61070;50.794;7.054;2023-05-01T12:19:12;100591.44;;;21.76;45.44
72925;BME280;61070;50.794;7.054;2023-05-01T12:21:39;100591.84;;;21.54;44.09
72925;BME280;61070;50.794;7.054;2023-05-01T12:24:12;100589.09;;;21.08;43.52
72925;BME280;61070;50.794;7.054;2023-05-01T12:26:42;100585.06;;;21.15;44.36
72925;BME280;61070;50.794;7.054;2023-05-01T12:29:08;100582.97;;;21.52;43.39
72925;BME280;61070;50.794;7.054;2023-05-01T12:31:34;100580.66;;;21.60;44.72
72925;BME280;61070;50.794;7.054;2023-05-01T12:34:02;100581.59;;;21.13;44.80
72925;BME280;61070;50.794;7.054;2023-05-01T12:36:29;100582.03;;;21.37;43.21
72925;BME280;61070;50.794;7.054;2023-05-01T12:41:40;100571.25;;;21.21;41.53
72925;BME280;61070;50.794;7.054;2023-05-01T12:44:23;100579.00;;;21.28;43.43
72925;BME280;61070;50.794;7.054;2023-05-01T12:46:59;100578.91;;;21.45;44.44
72925;BME280;61070;50.794;7.054;2023-05-01T12:49:25;100574.53;;;21.72;42.54
72925;BME280;61070;50.794;7.054;2023-05-01T12:51:54;100575.63;;;21.08;39.80
72925;BME280;61070;50.794;7.054;2023-05-01T12:54:21;100573.44;;;21.31;40.33
72925;BME280;61070;50.794;7.054;2023-05-01T12:56:47;100575.00;;;21.35;39.25
72925;BME280;61070;50.794;7.054;2023-05-01T12:59:26;100583.09;;;21.65;39.67
72925;BME280;61070;50.794;7.054;2023-05-01T13:01:58;100570.31;;;21.83;40.76
72925;BME280;61070;50.794;7.054;2023-05-01T13:04:25;100574.75;;;21.84;39.60
72925;BME280;61070;50.794;7.054;2023-05-01T13:06:51;100578.41;;;22.13;40.04
72925;BME280;61070;50.794;7.054;2023-05-01T13:12:01;100574.47;;;22.18;38.34
72925;BME280;61070;50.794;7.054;2023-05-01T13:14:28;100558.78;;;21.95;38.74
72925;BME280;61070;50.794;7.054;2023-05-01T13:16:55;100572.53;;;22.06;38.95
72925;BME280;61070;50.794;7.054;2023-05-01T13:19:24;100566.78;;;21.96;37.72
72925;BME280;61070;50.794;7.054;2023-05-01T13:21:57;100563.75;;;22.17;37.65
72925;BME280;61070;50.794;7.054;2023-05-01T13:24:23;100571.19;;;22.42;37.92
72925;BME280;61070;50.794;7.054;2023-05-01T13:26:56;100559.34;;;22.44;37.26
72925;BME280;61070;50.794;7.054;2023-05-01T13:29:25;100566.16;;;22.07;37.63